Zomergem, Belgium
Current Conditions -  °F | °C
As of 7:55 AM on Sunday 26 Oct 2014 (Local Time) from EHFS Reporting Station
Overcast Overcast  
Wind Chill: 55°   Ceiling: 3900
Heat Index: 55°   Visibility: 6mi
Dew Point: 52°   Wind: 12mph
Humidity: 88%   Direction: 200°SSW
Pressure: 30.18"   Gusts: NA
Location:  51.12°N, 3.56°E
Report Text: EHFS 260555Z AUTO 20010KT 9999 SCT033/// OVC039/// 13/11 Q1022
Loading
Personal Weather Stations






























Interactive Weather Map
Tropical Storm Tracking
New forecast layout! Learn more

10-Day Weather Forecast

Advertisements
Track Severe Weather on mobile